createdAt,value
2023-02-20T00:00:50.323Z,14.63
2023-02-20T00:03:18.996Z,15.77
2023-02-20T00:05:54.227Z,16.47
2023-02-20T00:08:24.750Z,15.03
2023-02-20T00:11:00.191Z,13.43
2023-02-20T00:13:28.926Z,14.77
2023-02-20T00:16:04.425Z,14.70
2023-02-20T00:18:33.385Z,15.37
2023-02-20T00:21:08.334Z,14.53
2023-02-20T00:23:38.783Z,13.60
2023-02-20T00:26:17.265Z,13.73
2023-02-20T00:28:45.902Z,13.73
2023-02-20T00:31:23.625Z,11.77
2023-02-20T00:33:52.528Z,14.43
2023-02-20T00:36:28.240Z,12.83
2023-02-20T00:38:58.325Z,14.37
2023-02-20T00:41:33.526Z,14.33
2023-02-20T00:44:02.737Z,14.33
2023-02-20T00:46:38.298Z,12.37
2023-02-20T00:49:07.669Z,14.60
2023-02-20T00:51:44.326Z,12.97
2023-02-20T00:54:22.074Z,12.33
2023-02-20T00:57:04.263Z,13.17
2023-02-20T00:59:33.151Z,12.40
2023-02-20T01:02:08.315Z,9.10
2023-02-20T01:04:37.396Z,13.53
2023-02-20T01:07:13.293Z,10.67
2023-02-20T01:09:45.023Z,9.97
2023-02-20T01:12:20.274Z,13.10
2023-02-20T01:14:48.743Z,9.60
2023-02-20T01:17:23.287Z,10.93
2023-02-20T01:19:52.138Z,10.67
2023-02-20T01:22:27.597Z,13.27
2023-02-20T01:24:58.128Z,13.27
2023-02-20T01:27:33.602Z,11.30
2023-02-20T01:30:02.557Z,8.27
2023-02-20T01:32:37.260Z,11.93
2023-02-20T01:35:06.416Z,10.60
2023-02-20T01:37:41.328Z,13.57
2023-02-20T01:40:17.333Z,12.73
2023-02-20T01:42:52.303Z,12.17
2023-02-20T01:45:34.583Z,14.60
2023-02-20T01:48:11.665Z,14.00
2023-02-20T01:50:46.347Z,12.67
2023-02-20T01:53:24.335Z,13.37
2023-02-20T01:56:04.998Z,16.10
2023-02-20T01:58:45.381Z,13.87
2023-02-20T02:01:14.414Z,12.67
2023-02-20T02:04:00.334Z,14.17
2023-02-20T02:06:29.502Z,14.53
2023-02-20T02:09:07.364Z,13.63
2023-02-20T02:11:37.786Z,12.73
2023-02-20T02:14:13.609Z,14.97
2023-02-20T02:16:54.216Z,14.30
2023-02-20T02:19:57.477Z,12.77
2023-02-20T02:23:12.691Z,17.10
2023-02-20T02:25:55.611Z,14.73
2023-02-20T02:29:10.663Z,15.43
2023-02-20T02:32:01.869Z,13.10
2023-02-20T02:35:00.342Z,15.20
2023-02-20T02:37:35.120Z,16.53
2023-02-20T02:40:14.635Z,17.90
2023-02-20T02:42:55.637Z,16.90
2023-02-20T02:45:31.361Z,14.07
2023-02-20T02:48:12.661Z,16.03
2023-02-20T02:50:44.312Z,19.93
2023-02-20T02:53:22.591Z,16.27
2023-02-20T02:55:51.231Z,17.13
2023-02-20T02:58:27.406Z,19.30
2023-02-20T03:01:00.482Z,16.40
2023-02-20T03:03:46.362Z,14.67
2023-02-20T03:06:29.308Z,17.80
2023-02-20T03:09:10.436Z,15.13
2023-02-20T03:11:41.516Z,20.50
2023-02-20T03:14:37.721Z,17.13
2023-02-20T03:17:13.999Z,15.47
2023-02-20T03:19:52.477Z,18.47
2023-02-20T03:22:25.701Z,17.40
2023-02-20T03:25:06.826Z,18.70
2023-02-20T03:27:41.484Z,13.47
2023-02-20T03:30:22.407Z,14.40
2023-02-20T03:33:13.371Z,18.17
2023-02-20T03:36:09.683Z,15.10
2023-02-20T03:39:05.783Z,15.23
2023-02-20T03:41:55.460Z,14.80
2023-02-20T03:44:32.410Z,15.43
2023-02-20T03:47:02.755Z,15.70
2023-02-20T03:50:01.679Z,14.97
2023-02-20T03:52:30.782Z,14.90
2023-02-20T03:55:05.602Z,15.13
2023-02-20T03:57:40.814Z,14.83
2023-02-20T04:00:19.402Z,13.97
2023-02-20T04:02:57.781Z,17.40
2023-02-20T04:05:37.190Z,15.90
2023-02-20T04:08:17.527Z,16.70
2023-02-20T04:10:50.671Z,17.57
2023-02-20T04:13:27.416Z,13.23
2023-02-20T04:15:57.455Z,12.87
2023-02-20T04:18:32.815Z,14.77
2023-02-20T04:21:04.685Z,19.87
2023-02-20T04:23:45.411Z,13.57
2023-02-20T04:26:18.615Z,15.43
2023-02-20T04:28:56.417Z,21.13
2023-02-20T04:31:25.532Z,14.20
2023-02-20T04:34:00.444Z,17.40
2023-02-20T04:36:29.393Z,17.60
2023-02-20T04:39:04.444Z,15.23
2023-02-20T04:41:33.590Z,15.33
2023-02-20T04:44:27.498Z,16.90
2023-02-20T04:46:56.354Z,17.80
2023-02-20T04:49:31.492Z,16.50
2023-02-20T04:52:00.194Z,17.70
2023-02-20T04:54:35.738Z,12.93
2023-02-20T04:57:04.221Z,14.40
2023-02-20T04:59:40.767Z,13.93
2023-02-20T05:02:28.776Z,12.77
2023-02-20T05:05:03.531Z,16.60
2023-02-20T05:07:32.355Z,18.77
2023-02-20T05:10:07.470Z,13.10
2023-02-20T05:12:35.934Z,12.70
2023-02-20T05:15:13.734Z,16.87
2023-02-20T05:17:42.508Z,16.97
2023-02-20T05:20:19.504Z,14.67
2023-02-20T05:22:47.172Z,17.33
2023-02-20T05:25:23.561Z,12.17
2023-02-20T05:27:52.446Z,15.33
2023-02-20T05:30:29.681Z,14.33
2023-02-20T05:32:58.256Z,16.10
2023-02-20T05:35:33.476Z,15.30
2023-02-20T05:38:02.316Z,14.00
2023-02-20T05:40:37.537Z,16.90
2023-02-20T05:43:06.015Z,12.93
2023-02-20T05:45:42.830Z,15.47
2023-02-20T05:48:13.700Z,15.60
2023-02-20T05:50:48.522Z,14.67
2023-02-20T05:53:17.224Z,15.57
2023-02-20T05:55:52.565Z,15.20
2023-02-20T05:58:21.076Z,13.73
2023-02-20T06:00:57.512Z,12.47
2023-02-20T06:03:39.519Z,11.80
2023-02-20T06:06:08.719Z,12.47
2023-02-20T06:08:43.576Z,13.57
2023-02-20T06:11:13.680Z,12.67
2023-02-20T06:13:49.777Z,14.60
2023-02-20T06:16:25.525Z,12.30
2023-02-20T06:19:01.589Z,12.60
2023-02-20T06:21:30.811Z,12.03
2023-02-20T06:24:05.854Z,13.53
2023-02-20T06:26:34.349Z,15.30
2023-02-20T06:29:09.630Z,15.10
2023-02-20T06:31:40.049Z,15.23
2023-02-20T06:34:16.812Z,14.23
2023-02-20T06:36:45.563Z,13.17
2023-02-20T06:39:22.836Z,11.93
2023-02-20T06:41:51.416Z,14.60
2023-02-20T06:44:26.861Z,12.80
2023-02-20T06:46:57.342Z,12.53
2023-02-20T06:49:32.839Z,13.40
2023-02-20T06:52:04.112Z,11.83
2023-02-20T06:54:40.591Z,9.53
2023-02-20T06:57:09.203Z,10.37
2023-02-20T06:59:48.534Z,11.03
2023-02-20T07:02:25.519Z,11.10
2023-02-20T07:05:07.681Z,16.57
2023-02-20T07:07:36.329Z,14.27
2023-02-20T07:10:12.644Z,9.37
2023-02-20T07:12:41.174Z,9.10
2023-02-20T07:15:18.885Z,9.53
2023-02-20T07:17:49.927Z,11.37
2023-02-20T07:20:24.665Z,10.40
2023-02-20T07:22:54.637Z,13.43
2023-02-20T07:25:29.879Z,11.47
2023-02-20T07:27:58.327Z,12.33
2023-02-20T07:30:33.707Z,10.70
2023-02-20T07:33:04.002Z,10.53
2023-02-20T07:35:38.632Z,9.63
2023-02-20T07:38:07.503Z,10.87
2023-02-20T07:40:42.656Z,8.90
2023-02-20T07:43:11.314Z,9.33
2023-02-20T07:45:46.937Z,11.27
2023-02-20T07:48:17.430Z,9.40
2023-02-20T07:50:52.775Z,12.60
2023-02-20T07:53:23.105Z,8.33
2023-02-20T07:55:58.908Z,9.43
2023-02-20T07:58:30.212Z,9.97
2023-02-20T08:01:05.720Z,10.17
2023-02-20T08:03:42.104Z,9.97
2023-02-20T08:06:25.913Z,9.67
2023-02-20T08:08:54.735Z,10.00
2023-02-20T08:11:30.620Z,11.00
2023-02-20T08:13:59.455Z,9.57
2023-02-20T08:16:34.931Z,9.07
2023-02-20T08:19:05.014Z,11.13
2023-02-20T08:21:41.005Z,13.77
2023-02-20T08:24:09.645Z,10.47
2023-02-20T08:26:51.636Z,12.17
2023-02-20T08:29:20.572Z,11.03
2023-02-20T08:31:55.699Z,10.50
2023-02-20T08:34:25.759Z,11.10
2023-02-20T08:37:00.939Z,12.97
2023-02-20T08:39:29.405Z,10.70
2023-02-20T08:42:03.908Z,11.17
2023-02-20T08:44:32.159Z,11.47
2023-02-20T08:47:07.991Z,11.73
2023-02-20T08:49:38.259Z,9.63
2023-02-20T08:52:14.664Z,12.30
2023-02-20T08:54:48.837Z,12.50
2023-02-20T08:57:26.721Z,10.97
2023-02-20T08:59:55.815Z,14.37
2023-02-20T09:02:35.766Z,12.87
2023-02-20T09:05:12.216Z,11.77
2023-02-20T09:07:47.691Z,12.87
2023-02-20T09:10:16.426Z,11.37
2023-02-20T09:12:51.876Z,12.60
2023-02-20T09:15:20.709Z,10.93
2023-02-20T09:17:57.686Z,11.47
2023-02-20T09:20:28.132Z,13.40
2023-02-20T09:23:06.960Z,11.37
2023-02-20T09:25:36.340Z,13.13
2023-02-20T09:28:11.747Z,11.53
2023-02-20T09:30:40.650Z,10.80
2023-02-20T09:33:15.714Z,14.23
2023-02-20T09:35:46.098Z,11.83
2023-02-20T09:38:20.692Z,10.83
2023-02-20T09:40:54.618Z,14.60
2023-02-20T09:43:40.997Z,11.70
2023-02-20T09:46:17.005Z,12.97
2023-02-20T09:49:06.941Z,13.27
2023-02-20T09:51:40.222Z,11.80
2023-02-20T09:54:19.048Z,11.07
2023-02-20T09:56:52.389Z,9.63
2023-02-20T09:59:31.728Z,10.97
2023-02-20T10:02:02.730Z,12.53
2023-02-20T10:04:59.945Z,11.90
2023-02-20T10:07:38.817Z,14.50
2023-02-20T10:10:21.292Z,11.23
2023-02-20T10:13:07.094Z,13.00
2023-02-20T10:15:45.838Z,11.20
2023-02-20T10:18:32.737Z,12.20
2023-02-20T10:21:08.542Z,10.10
2023-02-20T10:24:05.322Z,13.73
2023-02-20T10:26:38.766Z,13.53
2023-02-20T10:29:24.734Z,12.00
2023-02-20T10:32:01.035Z,11.50
2023-02-20T10:34:42.756Z,13.27
2023-02-20T10:37:16.137Z,13.07
2023-02-20T10:39:58.814Z,12.27
2023-02-20T10:42:33.369Z,15.70
2023-02-20T10:45:15.859Z,11.60
2023-02-20T10:47:48.884Z,10.83
2023-02-20T10:50:28.783Z,10.10
2023-02-20T10:53:02.770Z,9.40
2023-02-20T10:55:47.786Z,12.73
2023-02-20T10:58:20.637Z,12.27
2023-02-20T11:01:02.903Z,8.73
2023-02-20T11:03:52.644Z,10.80
2023-02-20T11:06:30.824Z,11.20
2023-02-20T11:08:59.431Z,11.87
2023-02-20T11:11:40.790Z,12.43
2023-02-20T11:14:37.711Z,8.23
2023-02-20T11:17:12.854Z,8.90
2023-02-20T11:19:51.172Z,11.57
2023-02-20T11:22:39.280Z,9.03
2023-02-20T11:25:23.763Z,12.20
2023-02-20T11:27:56.806Z,14.00
2023-02-20T11:30:38.909Z,11.50
2023-02-20T11:33:13.268Z,13.73
2023-02-20T11:35:50.128Z,14.13
2023-02-20T11:38:26.328Z,8.37
2023-02-20T11:41:12.900Z,11.13
2023-02-20T11:44:00.749Z,10.13
2023-02-20T11:46:35.877Z,9.33
2023-02-20T11:49:07.446Z,14.83
2023-02-20T11:51:47.935Z,11.20
2023-02-20T11:54:25.834Z,11.10
2023-02-20T11:57:02.099Z,11.90
2023-02-20T11:59:41.849Z,11.53
2023-02-20T12:02:29.752Z,10.90
2023-02-20T12:05:18.177Z,11.50
2023-02-20T12:07:56.179Z,9.87
2023-02-20T12:10:43.913Z,9.07
2023-02-20T12:13:16.790Z,10.90
2023-02-20T12:16:01.149Z,12.43
2023-02-20T12:18:51.857Z,10.83
2023-02-20T12:21:29.821Z,11.17
2023-02-20T12:24:21.197Z,9.83
2023-02-20T12:26:55.525Z,9.80
2023-02-20T12:29:46.112Z,11.80
2023-02-20T12:32:42.195Z,13.43
2023-02-20T12:35:47.157Z,10.03
2023-02-20T12:38:32.033Z,13.10
2023-02-20T12:41:35.179Z,10.57
2023-02-20T12:44:24.386Z,11.27
2023-02-20T12:47:11.907Z,12.87
2023-02-20T12:50:00.302Z,13.50
2023-02-20T12:53:10.972Z,11.43
2023-02-20T12:55:56.639Z,14.77
2023-02-20T12:58:43.855Z,10.87
2023-02-20T13:01:16.283Z,10.80
2023-02-20T13:03:57.970Z,11.37
2023-02-20T13:06:41.451Z,11.33
2023-02-20T13:09:26.825Z,12.27
2023-02-20T13:12:02.786Z,10.40
2023-02-20T13:14:49.139Z,10.03
2023-02-20T13:17:31.299Z,11.27
2023-02-20T13:20:13.958Z,14.90
2023-02-20T13:22:43.854Z,8.97
2023-02-20T13:25:49.221Z,9.33
2023-02-20T13:28:34.594Z,15.57
2023-02-20T13:31:27.973Z,13.07
2023-02-20T13:34:28.419Z,9.50
2023-02-20T13:37:03.881Z,9.47
2023-02-20T13:39:43.922Z,11.60
2023-02-20T13:42:49.250Z,11.87
2023-02-20T13:45:41.595Z,9.10
2023-02-20T13:48:44.020Z,11.60
2023-02-20T13:51:42.257Z,10.50
2023-02-20T13:54:23.805Z,11.50
2023-02-20T13:57:10.269Z,10.90
2023-02-20T13:59:40.372Z,9.87
2023-02-20T14:02:26.908Z,10.30
2023-02-20T14:05:04.993Z,7.73
2023-02-20T14:07:45.306Z,9.87
2023-02-20T14:10:19.364Z,10.00
2023-02-20T14:13:04.008Z,10.63
2023-02-20T14:15:34.660Z,7.83
2023-02-20T14:18:09.933Z,13.57
2023-02-20T14:20:41.158Z,7.43
2023-02-20T14:23:23.024Z,9.73
2023-02-20T14:26:01.114Z,8.57
2023-02-20T14:28:40.282Z,8.67
2023-02-20T14:31:22.283Z,9.50
2023-02-20T14:33:59.972Z,9.37
2023-02-20T14:37:09.773Z,11.00
2023-02-20T14:39:56.919Z,10.77
2023-02-20T14:42:26.775Z,7.00
2023-02-20T14:45:09.420Z,6.83
2023-02-20T14:47:52.347Z,6.83
2023-02-20T14:50:31.281Z,8.70
2023-02-20T14:53:08.294Z,8.07
2023-02-20T14:55:43.040Z,6.83
2023-02-20T14:58:16.301Z,9.87
2023-02-20T15:00:54.227Z,7.47
2023-02-20T15:03:34.708Z,10.57
2023-02-20T15:06:22.290Z,7.60
2023-02-20T15:08:58.330Z,11.53
2023-02-20T15:11:34.299Z,6.90
2023-02-20T15:14:04.233Z,9.63
2023-02-20T15:16:47.355Z,7.70
2023-02-20T15:19:24.135Z,9.50
2023-02-20T15:22:05.985Z,7.67
2023-02-20T15:24:40.974Z,7.50
2023-02-20T15:27:22.051Z,8.93
2023-02-20T15:30:10.577Z,7.60
2023-02-20T15:32:50.055Z,9.00
2023-02-20T15:35:21.901Z,7.80
2023-02-20T15:37:57.017Z,6.17
2023-02-20T15:40:28.281Z,6.47
2023-02-20T15:43:18.725Z,8.63
2023-02-20T15:45:53.009Z,9.40
2023-02-20T15:48:30.415Z,11.67
2023-02-20T15:50:59.009Z,7.17
2023-02-20T15:53:37.052Z,9.80
2023-02-20T15:56:06.448Z,8.57
2023-02-20T15:58:45.041Z,6.93
2023-02-20T16:01:14.116Z,8.63
2023-02-20T16:03:53.770Z,7.53
2023-02-20T16:06:29.532Z,10.37
2023-02-20T16:09:05.564Z,7.37
2023-02-20T16:11:40.030Z,6.97
2023-02-20T16:14:17.321Z,10.00
2023-02-20T16:16:47.783Z,9.90
2023-02-20T16:19:40.116Z,10.23
2023-02-20T16:22:11.653Z,5.47
2023-02-20T16:24:50.342Z,6.53
2023-02-20T16:27:25.011Z,8.73
2023-02-20T16:30:01.134Z,6.90
2023-02-20T16:32:31.585Z,9.30
2023-02-20T16:35:09.088Z,8.37
2023-02-20T16:37:37.976Z,11.60
2023-02-20T16:40:14.100Z,9.93
2023-02-20T16:42:44.418Z,7.67
2023-02-20T16:45:22.074Z,9.50
2023-02-20T16:47:53.164Z,7.53
2023-02-20T16:50:33.394Z,8.50
2023-02-20T16:53:03.830Z,11.00
2023-02-20T16:55:43.090Z,8.77
2023-02-20T16:58:12.134Z,8.87
2023-02-20T17:00:56.995Z,10.40
2023-02-20T17:03:27.850Z,7.93
2023-02-20T17:06:11.365Z,7.90
2023-02-20T17:08:46.162Z,8.00
2023-02-20T17:11:15.392Z,7.70
2023-02-20T17:13:57.704Z,6.63
2023-02-20T17:16:31.750Z,8.77
2023-02-20T17:19:07.087Z,7.13
2023-02-20T17:21:37.675Z,17.43
2023-02-20T17:24:13.114Z,13.47
2023-02-20T17:26:41.611Z,7.40
2023-02-20T17:29:17.090Z,10.03
2023-02-20T17:31:45.763Z,9.67
2023-02-20T17:34:21.166Z,10.57
2023-02-20T17:36:52.229Z,10.13
2023-02-20T17:39:30.130Z,12.57
2023-02-20T17:41:59.089Z,8.43
2023-02-20T17:44:36.245Z,11.47
2023-02-20T17:47:05.540Z,8.47
2023-02-20T17:49:41.779Z,12.07
2023-02-20T17:52:12.262Z,18.63
2023-02-20T17:54:48.197Z,9.13
2023-02-20T17:57:19.068Z,10.17
2023-02-20T17:59:56.185Z,10.37
2023-02-20T18:02:25.115Z,9.97
2023-02-20T18:05:06.209Z,14.17
2023-02-20T18:07:42.979Z,8.77
2023-02-20T18:10:18.526Z,9.90
2023-02-20T18:13:02.921Z,12.37
2023-02-20T18:15:39.456Z,9.83
2023-02-20T18:18:08.481Z,10.03
2023-02-20T18:20:43.186Z,12.77
2023-02-20T18:23:13.246Z,11.00
2023-02-20T18:25:48.527Z,11.57
2023-02-20T18:28:17.086Z,10.00
2023-02-20T18:30:52.222Z,9.67
2023-02-20T18:33:21.425Z,11.17
2023-02-20T18:36:07.633Z,10.67
2023-02-20T18:38:38.623Z,10.47
2023-02-20T18:41:14.150Z,11.63
2023-02-20T18:43:45.509Z,11.53
2023-02-20T18:46:21.175Z,13.43
2023-02-20T18:48:49.648Z,12.27
2023-02-20T18:51:25.263Z,14.77
2023-02-20T18:53:55.664Z,12.20
2023-02-20T18:56:31.538Z,12.90
2023-02-20T18:59:00.856Z,14.07
2023-02-20T19:01:36.524Z,12.97
2023-02-20T19:04:12.024Z,12.97
2023-02-20T19:06:55.501Z,12.47
2023-02-20T19:09:26.534Z,13.03
2023-02-20T19:12:03.508Z,12.17
2023-02-20T19:14:32.373Z,13.03
2023-02-20T19:17:09.553Z,12.03
2023-02-20T19:19:38.073Z,12.57
2023-02-20T19:22:13.494Z,13.57
2023-02-20T19:24:43.419Z,14.27
2023-02-20T19:27:18.230Z,13.60
2023-02-20T19:29:49.017Z,14.70
2023-02-20T19:32:24.388Z,14.03
2023-02-20T19:34:53.703Z,13.50
2023-02-20T19:37:30.234Z,14.50
2023-02-20T19:40:00.627Z,13.30
2023-02-20T19:42:35.338Z,13.17
2023-02-20T19:45:04.990Z,13.30
2023-02-20T19:47:40.239Z,12.53
2023-02-20T19:50:09.411Z,14.57
2023-02-20T19:52:44.290Z,13.37
2023-02-20T19:55:26.168Z,13.53
2023-02-20T19:57:54.947Z,14.00
2023-02-20T20:00:23.577Z,14.20
2023-02-20T20:02:59.607Z,16.80
2023-02-20T20:05:41.232Z,15.27
2023-02-20T20:08:12.888Z,15.77
2023-02-20T20:10:51.318Z,14.10
2023-02-20T20:13:19.894Z,14.43
2023-02-20T20:15:55.719Z,18.03
2023-02-20T20:18:24.723Z,15.37
2023-02-20T20:21:00.250Z,15.23
2023-02-20T20:23:30.593Z,15.83
2023-02-20T20:26:08.672Z,17.53
2023-02-20T20:28:38.799Z,17.17
2023-02-20T20:31:14.632Z,16.87
2023-02-20T20:33:43.579Z,16.70
2023-02-20T20:36:19.308Z,16.97
2023-02-20T20:38:48.513Z,18.30
2023-02-20T20:41:26.621Z,17.10
2023-02-20T20:44:04.683Z,19.63
2023-02-20T20:46:44.555Z,18.53
2023-02-20T20:49:13.635Z,17.47
2023-02-20T20:51:52.564Z,18.60
2023-02-20T20:54:21.106Z,18.23
2023-02-20T20:57:00.610Z,19.43
2023-02-20T20:59:29.430Z,17.47
2023-02-20T21:02:04.596Z,19.60
2023-02-20T21:04:58.041Z,17.60
2023-02-20T21:07:43.640Z,18.20
2023-02-20T21:10:12.365Z,17.47
2023-02-20T21:12:49.624Z,17.27
2023-02-20T21:15:19.134Z,17.83
2023-02-20T21:17:54.308Z,18.57
2023-02-20T21:20:25.732Z,18.33
2023-02-20T21:23:01.632Z,19.37
2023-02-20T21:25:30.284Z,19.53
2023-02-20T21:28:07.646Z,20.77
2023-02-20T21:30:36.355Z,19.67
2023-02-20T21:33:11.582Z,20.53
2023-02-20T21:35:40.186Z,21.47
2023-02-20T21:38:15.720Z,20.57
2023-02-20T21:40:44.862Z,20.40
2023-02-20T21:43:38.342Z,21.20
2023-02-20T21:46:07.296Z,21.00
2023-02-20T21:48:42.720Z,21.77
2023-02-20T21:51:11.485Z,22.17
2023-02-20T21:53:47.699Z,22.03
2023-02-20T21:56:16.594Z,21.80
2023-02-20T21:59:09.366Z,22.80
2023-02-20T22:01:38.580Z,23.63
2023-02-20T22:04:14.833Z,24.23
2023-02-20T22:07:08.263Z,22.97
2023-02-20T22:10:00.460Z,23.17
2023-02-20T22:12:46.070Z,23.33
2023-02-20T22:15:40.373Z,25.30
2023-02-20T22:18:26.313Z,25.70
2023-02-20T22:21:18.381Z,24.57
2023-02-20T22:24:04.197Z,25.50
2023-02-20T22:26:56.391Z,27.63
2023-02-20T22:29:41.734Z,27.60
2023-02-20T22:32:35.621Z,28.83
2023-02-20T22:35:21.568Z,27.97
2023-02-20T22:38:13.386Z,28.37
2023-02-20T22:40:59.185Z,32.90
2023-02-20T22:43:51.670Z,30.63
2023-02-20T22:46:39.922Z,29.33
2023-02-20T22:49:36.438Z,32.07
2023-02-20T22:52:22.495Z,29.47
2023-02-20T22:55:15.540Z,28.20
2023-02-20T22:58:01.611Z,29.53
2023-02-20T23:00:54.514Z,28.77
2023-02-20T23:03:40.397Z,31.77
2023-02-20T23:06:40.743Z,29.47
2023-02-20T23:09:27.762Z,31.47
2023-02-20T23:12:20.518Z,28.97
2023-02-20T23:15:08.091Z,27.73
2023-02-20T23:18:00.455Z,24.30
2023-02-20T23:20:52.553Z,25.37
2023-02-20T23:23:39.959Z,25.07
2023-02-20T23:26:33.783Z,27.40
2023-02-20T23:29:20.030Z,27.00
2023-02-20T23:32:12.544Z,27.20
2023-02-20T23:34:58.509Z,28.43
2023-02-20T23:37:50.765Z,27.20
2023-02-20T23:40:38.159Z,29.00
2023-02-20T23:43:30.710Z,34.33
2023-02-20T23:46:16.381Z,36.20
2023-02-20T23:49:08.468Z,32.53
2023-02-20T23:51:54.411Z,35.73
2023-02-20T23:54:47.798Z,38.17
2023-02-20T23:57:35.108Z,36.37
